sensor_id;sensor_type;location;lat;lon;timestamp;P1;durP1;ratioP1;P2;durP2;ratioP2
71867;SDS011;59738;48.324;14.230;2023-04-20T00:01:26;20.37;;;8.80;;
71867;SDS011;59738;48.324;14.230;2023-04-20T00:03:53;17.58;;;8.98;;
71867;SDS011;59738;48.324;14.230;2023-04-20T00:06:20;13.68;;;7.55;;
71867;SDS011;59738;48.324;14.230;2023-04-20T00:08:50;15.88;;;7.47;;
71867;SDS011;59738;48.324;14.230;2023-04-20T00:11:17;20.70;;;8.60;;
71867;SDS011;59738;48.324;14.230;2023-04-20T00:13:45;17.43;;;8.63;;
71867;SDS011;59738;48.324;14.230;2023-04-20T00:16:12;18.40;;;8.75;;
71867;SDS011;59738;48.324;14.230;2023-04-20T00:18:40;16.20;;;8.30;;
71867;SDS011;59738;48.324;14.230;2023-04-20T00:21:07;15.18;;;7.80;;
71867;SDS011;59738;48.324;14.230;2023-04-20T00:23:34;17.35;;;7.85;;
71867;SDS011;59738;48.324;14.230;2023-04-20T00:26:02;14.23;;;7.33;;
71867;SDS011;59738;48.324;14.230;2023-04-20T00:28:29;18.50;;;9.20;;
71867;SDS011;59738;48.324;14.230;2023-04-20T00:30:58;26.27;;;12.25;;
71867;SDS011;59738;48.324;14.230;2023-04-20T00:33:25;24.42;;;12.20;;
71867;SDS011;59738;48.324;14.230;2023-04-20T00:35:52;24.08;;;11.98;;
71867;SDS011;59738;48.324;14.230;2023-04-20T00:38:22;18.42;;;9.52;;
71867;SDS011;59738;48.324;14.230;2023-04-20T00:40:50;20.58;;;10.38;;
71867;SDS011;59738;48.324;14.230;2023-04-20T00:43:19;20.98;;;9.77;;
71867;SDS011;59738;48.324;14.230;2023-04-20T00:45:46;15.85;;;8.45;;
71867;SDS011;59738;48.324;14.230;2023-04-20T00:48:14;19.00;;;9.20;;
71867;SDS011;59738;48.324;14.230;2023-04-20T00:50:42;16.40;;;8.75;;
71867;SDS011;59738;48.324;14.230;2023-04-20T00:53:09;16.40;;;7.95;;
71867;SDS011;59738;48.324;14.230;2023-04-20T00:55:37;16.33;;;8.82;;
71867;SDS011;59738;48.324;14.230;2023-04-20T00:58:04;17.98;;;8.73;;
71867;SDS011;59738;48.324;14.230;2023-04-20T01:00:32;17.25;;;9.40;;
71867;SDS011;59738;48.324;14.230;2023-04-20T01:02:59;17.40;;;8.95;;
71867;SDS011;59738;48.324;14.230;2023-04-20T01:05:28;15.38;;;8.45;;
71867;SDS011;59738;48.324;14.230;2023-04-20T01:07:55;16.98;;;8.77;;
71867;SDS011;59738;48.324;14.230;2023-04-20T01:10:22;16.17;;;8.07;;
71867;SDS011;59738;48.324;14.230;2023-04-20T01:12:50;12.55;;;6.63;;
71867;SDS011;59738;48.324;14.230;2023-04-20T01:15:17;17.20;;;8.48;;
71867;SDS011;59738;48.324;14.230;2023-04-20T01:17:45;14.45;;;5.78;;
71867;SDS011;59738;48.324;14.230;2023-04-20T01:20:14;8.15;;;5.32;;
71867;SDS011;59738;48.324;14.230;2023-04-20T01:22:44;11.98;;;6.57;;
71867;SDS011;59738;48.324;14.230;2023-04-20T01:25:12;11.20;;;5.45;;
71867;SDS011;59738;48.324;14.230;2023-04-20T01:27:39;8.90;;;4.15;;
71867;SDS011;59738;48.324;14.230;2023-04-20T01:30:07;10.50;;;5.43;;
71867;SDS011;59738;48.324;14.230;2023-04-20T01:32:36;11.45;;;5.10;;
71867;SDS011;59738;48.324;14.230;2023-04-20T01:35:04;8.30;;;4.45;;
71867;SDS011;59738;48.324;14.230;2023-04-20T01:37:31;8.88;;;4.18;;
71867;SDS011;59738;48.324;14.230;2023-04-20T01:40:04;8.05;;;3.85;;
71867;SDS011;59738;48.324;14.230;2023-04-20T01:42:31;9.10;;;4.13;;
71867;SDS011;59738;48.324;14.230;2023-04-20T01:44:59;4.95;;;2.85;;
71867;SDS011;59738;48.324;14.230;2023-04-20T01:47:26;3.42;;;2.42;;
71867;SDS011;59738;48.324;14.230;2023-04-20T01:49:53;5.45;;;3.63;;
71867;SDS011;59738;48.324;14.230;2023-04-20T01:52:20;6.00;;;3.33;;
71867;SDS011;59738;48.324;14.230;2023-04-20T01:54:47;8.25;;;3.35;;
71867;SDS011;59738;48.324;14.230;2023-04-20T01:57:16;6.93;;;3.08;;
71867;SDS011;59738;48.324;14.230;2023-04-20T01:59:43;3.67;;;2.38;;
71867;SDS011;59738;48.324;14.230;2023-04-20T02:02:11;6.85;;;3.88;;
71867;SDS011;59738;48.324;14.230;2023-04-20T02:04:38;6.05;;;3.38;;
71867;SDS011;59738;48.324;14.230;2023-04-20T02:07:06;7.78;;;4.10;;
71867;SDS011;59738;48.324;14.230;2023-04-20T02:09:37;6.82;;;4.13;;
71867;SDS011;59738;48.324;14.230;2023-04-20T02:12:04;4.93;;;3.17;;
71867;SDS011;59738;48.324;14.230;2023-04-20T02:14:33;8.82;;;3.33;;
71867;SDS011;59738;48.324;14.230;2023-04-20T02:17:00;6.43;;;4.10;;
71867;SDS011;59738;48.324;14.230;2023-04-20T02:19:28;5.07;;;3.75;;
71867;SDS011;59738;48.324;14.230;2023-04-20T02:21:55;9.88;;;4.68;;
71867;SDS011;59738;48.324;14.230;2023-04-20T02:24:22;8.82;;;4.90;;
71867;SDS011;59738;48.324;14.230;2023-04-20T02:26:49;7.35;;;3.83;;
71867;SDS011;59738;48.324;14.230;2023-04-20T02:29:17;10.32;;;4.05;;
71867;SDS011;59738;48.324;14.230;2023-04-20T02:31:45;6.72;;;4.15;;
71867;SDS011;59738;48.324;14.230;2023-04-20T02:34:15;7.70;;;4.35;;
71867;SDS011;59738;48.324;14.230;2023-04-20T02:36:42;11.32;;;4.38;;
71867;SDS011;59738;48.324;14.230;2023-04-20T02:39:11;11.30;;;5.25;;
71867;SDS011;59738;48.324;14.230;2023-04-20T02:41:39;9.32;;;4.85;;
71867;SDS011;59738;48.324;14.230;2023-04-20T02:44:06;10.88;;;5.25;;
71867;SDS011;59738;48.324;14.230;2023-04-20T02:46:36;10.82;;;4.97;;
71867;SDS011;59738;48.324;14.230;2023-04-20T02:49:05;11.60;;;5.90;;
71867;SDS011;59738;48.324;14.230;2023-04-20T02:51:37;10.48;;;5.65;;
71867;SDS011;59738;48.324;14.230;2023-04-20T02:54:04;11.45;;;5.25;;
71867;SDS011;59738;48.324;14.230;2023-04-20T02:56:32;11.48;;;5.60;;
71867;SDS011;59738;48.324;14.230;2023-04-20T02:59:03;9.35;;;5.53;;
71867;SDS011;59738;48.324;14.230;2023-04-20T03:01:50;11.00;;;5.22;;
71867;SDS011;59738;48.324;14.230;2023-04-20T03:04:24;7.85;;;5.00;;
71867;SDS011;59738;48.324;14.230;2023-04-20T03:07:18;10.20;;;5.20;;
71867;SDS011;59738;48.324;14.230;2023-04-20T03:09:46;8.60;;;4.90;;
71867;SDS011;59738;48.324;14.230;2023-04-20T03:12:13;11.35;;;5.35;;
71867;SDS011;59738;48.324;14.230;2023-04-20T03:15:06;12.90;;;5.20;;
71867;SDS011;59738;48.324;14.230;2023-04-20T03:17:54;7.82;;;5.43;;
71867;SDS011;59738;48.324;14.230;2023-04-20T03:20:22;11.50;;;5.55;;
71867;SDS011;59738;48.324;14.230;2023-04-20T03:22:57;13.35;;;5.75;;
71867;SDS011;59738;48.324;14.230;2023-04-20T03:25:26;7.97;;;5.03;;
71867;SDS011;59738;48.324;14.230;2023-04-20T03:27:57;8.90;;;4.85;;
71867;SDS011;59738;48.324;14.230;2023-04-20T03:30:25;9.48;;;5.40;;
71867;SDS011;59738;48.324;14.230;2023-04-20T03:33:01;9.52;;;4.82;;
71867;SDS011;59738;48.324;14.230;2023-04-20T03:35:30;6.32;;;3.42;;
71867;SDS011;59738;48.324;14.230;2023-04-20T03:37:57;4.45;;;3.00;;
71867;SDS011;59738;48.324;14.230;2023-04-20T03:40:24;8.20;;;5.28;;
71867;SDS011;59738;48.324;14.230;2023-04-20T03:42:52;7.40;;;4.85;;
71867;SDS011;59738;48.324;14.230;2023-04-20T03:45:20;5.45;;;3.58;;
71867;SDS011;59738;48.324;14.230;2023-04-20T03:47:48;9.35;;;4.93;;
71867;SDS011;59738;48.324;14.230;2023-04-20T03:50:15;8.20;;;3.78;;
71867;SDS011;59738;48.324;14.230;2023-04-20T03:52:43;7.85;;;4.72;;
71867;SDS011;59738;48.324;14.230;2023-04-20T03:55:10;8.52;;;3.97;;
71867;SDS011;59738;48.324;14.230;2023-04-20T03:57:44;8.23;;;4.47;;
71867;SDS011;59738;48.324;14.230;2023-04-20T04:00:12;5.63;;;3.60;;
71867;SDS011;59738;48.324;14.230;2023-04-20T04:02:45;5.22;;;4.18;;
71867;SDS011;59738;48.324;14.230;2023-04-20T04:05:15;6.07;;;4.00;;
71867;SDS011;59738;48.324;14.230;2023-04-20T04:07:43;5.75;;;3.55;;
71867;SDS011;59738;48.324;14.230;2023-04-20T04:10:12;2.38;;;2.17;;
71867;SDS011;59738;48.324;14.230;2023-04-20T04:12:39;5.10;;;3.17;;
71867;SDS011;59738;48.324;14.230;2023-04-20T04:15:07;10.43;;;4.57;;
71867;SDS011;59738;48.324;14.230;2023-04-20T04:17:40;4.70;;;3.03;;
71867;SDS011;59738;48.324;14.230;2023-04-20T04:20:07;6.30;;;4.38;;
71867;SDS011;59738;48.324;14.230;2023-04-20T04:22:36;7.10;;;4.15;;
71867;SDS011;59738;48.324;14.230;2023-04-20T04:25:31;2.90;;;2.30;;
71867;SDS011;59738;48.324;14.230;2023-04-20T04:27:59;4.03;;;3.13;;
71867;SDS011;59738;48.324;14.230;2023-04-20T04:30:30;7.53;;;4.25;;
71867;SDS011;59738;48.324;14.230;2023-04-20T04:32:57;7.68;;;4.20;;
71867;SDS011;59738;48.324;14.230;2023-04-20T04:35:26;6.03;;;2.90;;
71867;SDS011;59738;48.324;14.230;2023-04-20T04:37:55;6.63;;;3.78;;
71867;SDS011;59738;48.324;14.230;2023-04-20T04:40:23;5.53;;;3.25;;
71867;SDS011;59738;48.324;14.230;2023-04-20T04:42:54;5.95;;;3.90;;
71867;SDS011;59738;48.324;14.230;2023-04-20T04:45:21;7.90;;;4.43;;
71867;SDS011;59738;48.324;14.230;2023-04-20T04:47:50;7.53;;;4.63;;
71867;SDS011;59738;48.324;14.230;2023-04-20T04:50:18;7.75;;;3.63;;
71867;SDS011;59738;48.324;14.230;2023-04-20T04:52:46;7.95;;;4.88;;
71867;SDS011;59738;48.324;14.230;2023-04-20T04:55:13;8.27;;;4.68;;
71867;SDS011;59738;48.324;14.230;2023-04-20T04:57:40;9.35;;;5.00;;
71867;SDS011;59738;48.324;14.230;2023-04-20T05:00:09;6.00;;;3.20;;
71867;SDS011;59738;48.324;14.230;2023-04-20T05:02:37;5.63;;;3.50;;
71867;SDS011;59738;48.324;14.230;2023-04-20T05:05:04;4.95;;;3.15;;
71867;SDS011;59738;48.324;14.230;2023-04-20T05:07:33;5.30;;;3.10;;
71867;SDS011;59738;48.324;14.230;2023-04-20T05:10:00;3.97;;;2.67;;
71867;SDS011;59738;48.324;14.230;2023-04-20T05:12:27;4.63;;;2.95;;
71867;SDS011;59738;48.324;14.230;2023-04-20T05:14:54;3.35;;;2.50;;
71867;SDS011;59738;48.324;14.230;2023-04-20T05:17:23;7.13;;;3.58;;
71867;SDS011;59738;48.324;14.230;2023-04-20T05:19:50;5.35;;;2.95;;
71867;SDS011;59738;48.324;14.230;2023-04-20T05:22:17;3.78;;;2.67;;
71867;SDS011;59738;48.324;14.230;2023-04-20T05:24:44;4.50;;;2.72;;
71867;SDS011;59738;48.324;14.230;2023-04-20T05:27:11;6.25;;;2.72;;
71867;SDS011;59738;48.324;14.230;2023-04-20T05:29:38;4.53;;;3.30;;
71867;SDS011;59738;48.324;14.230;2023-04-20T05:32:05;4.95;;;2.67;;
71867;SDS011;59738;48.324;14.230;2023-04-20T05:34:34;5.45;;;3.53;;
71867;SDS011;59738;48.324;14.230;2023-04-20T05:37:02;5.50;;;3.15;;
71867;SDS011;59738;48.324;14.230;2023-04-20T05:39:29;4.80;;;2.58;;
71867;SDS011;59738;48.324;14.230;2023-04-20T05:41:56;4.55;;;3.35;;
71867;SDS011;59738;48.324;14.230;2023-04-20T05:44:23;6.55;;;3.30;;
71867;SDS011;59738;48.324;14.230;2023-04-20T05:46:50;5.13;;;2.72;;
71867;SDS011;59738;48.324;14.230;2023-04-20T05:49:17;3.67;;;2.45;;
71867;SDS011;59738;48.324;14.230;2023-04-20T05:51:46;3.40;;;2.40;;
71867;SDS011;59738;48.324;14.230;2023-04-20T05:54:13;3.42;;;2.95;;
71867;SDS011;59738;48.324;14.230;2023-04-20T05:56:40;4.03;;;2.97;;
71867;SDS011;59738;48.324;14.230;2023-04-20T05:59:07;4.28;;;2.58;;
71867;SDS011;59738;48.324;14.230;2023-04-20T06:01:34;2.38;;;2.17;;
71867;SDS011;59738;48.324;14.230;2023-04-20T06:04:01;3.72;;;2.58;;
71867;SDS011;59738;48.324;14.230;2023-04-20T06:06:28;4.78;;;2.85;;
71867;SDS011;59738;48.324;14.230;2023-04-20T06:08:57;4.13;;;2.30;;
71867;SDS011;59738;48.324;14.230;2023-04-20T06:11:24;4.38;;;2.92;;
71867;SDS011;59738;48.324;14.230;2023-04-20T06:13:51;5.45;;;3.38;;
71867;SDS011;59738;48.324;14.230;2023-04-20T06:16:18;5.18;;;2.70;;
71867;SDS011;59738;48.324;14.230;2023-04-20T06:18:45;3.05;;;2.53;;
71867;SDS011;59738;48.324;14.230;2023-04-20T06:21:12;3.88;;;2.45;;
71867;SDS011;59738;48.324;14.230;2023-04-20T06:23:40;4.20;;;2.90;;
71867;SDS011;59738;48.324;14.230;2023-04-20T06:26:10;4.82;;;3.05;;
71867;SDS011;59738;48.324;14.230;2023-04-20T06:28:37;3.92;;;2.88;;
71867;SDS011;59738;48.324;14.230;2023-04-20T06:31:04;5.18;;;3.38;;
71867;SDS011;59738;48.324;14.230;2023-04-20T06:33:31;4.80;;;2.42;;
71867;SDS011;59738;48.324;14.230;2023-04-20T06:35:59;4.15;;;2.50;;
71867;SDS011;59738;48.324;14.230;2023-04-20T06:38:26;3.55;;;2.15;;
71867;SDS011;59738;48.324;14.230;2023-04-20T06:40:53;4.70;;;2.65;;
71867;SDS011;59738;48.324;14.230;2023-04-20T06:43:23;2.90;;;2.42;;
71867;SDS011;59738;48.324;14.230;2023-04-20T06:45:50;2.67;;;2.08;;
71867;SDS011;59738;48.324;14.230;2023-04-20T06:48:17;4.38;;;3.17;;
71867;SDS011;59738;48.324;14.230;2023-04-20T06:50:46;3.25;;;2.92;;
71867;SDS011;59738;48.324;14.230;2023-04-20T06:53:13;5.97;;;2.47;;
71867;SDS011;59738;48.324;14.230;2023-04-20T06:55:40;4.50;;;2.72;;
71867;SDS011;59738;48.324;14.230;2023-04-20T06:58:07;3.97;;;2.53;;
71867;SDS011;59738;48.324;14.230;2023-04-20T07:00:36;3.95;;;2.90;;
71867;SDS011;59738;48.324;14.230;2023-04-20T07:03:03;3.38;;;2.70;;
71867;SDS011;59738;48.324;14.230;2023-04-20T07:05:30;2.40;;;2.08;;
71867;SDS011;59738;48.324;14.230;2023-04-20T07:07:57;3.03;;;2.63;;
71867;SDS011;59738;48.324;14.230;2023-04-20T07:10:24;4.30;;;2.47;;
71867;SDS011;59738;48.324;14.230;2023-04-20T07:12:51;2.85;;;2.50;;
71867;SDS011;59738;48.324;14.230;2023-04-20T07:15:18;2.63;;;1.90;;
71867;SDS011;59738;48.324;14.230;2023-04-20T07:17:47;3.60;;;2.60;;
71867;SDS011;59738;48.324;14.230;2023-04-20T07:20:14;3.38;;;2.05;;
71867;SDS011;59738;48.324;14.230;2023-04-20T07:22:41;2.38;;;1.88;;
71867;SDS011;59738;48.324;14.230;2023-04-20T07:25:08;3.30;;;2.20;;
71867;SDS011;59738;48.324;14.230;2023-04-20T07:27:36;2.90;;;2.37;;
71867;SDS011;59738;48.324;14.230;2023-04-20T07:30:03;4.13;;;2.92;;
71867;SDS011;59738;48.324;14.230;2023-04-20T07:32:32;2.88;;;2.53;;
71867;SDS011;59738;48.324;14.230;2023-04-20T07:35:00;4.05;;;2.92;;
71867;SDS011;59738;48.324;14.230;2023-04-20T07:37:31;1.95;;;1.85;;
71867;SDS011;59738;48.324;14.230;2023-04-20T07:39:59;2.53;;;2.20;;
71867;SDS011;59738;48.324;14.230;2023-04-20T07:42:26;3.20;;;2.50;;
71867;SDS011;59738;48.324;14.230;2023-04-20T07:44:53;2.33;;;2.13;;
71867;SDS011;59738;48.324;14.230;2023-04-20T07:47:20;2.67;;;2.17;;
71867;SDS011;59738;48.324;14.230;2023-04-20T07:49:47;2.35;;;2.15;;
71867;SDS011;59738;48.324;14.230;2023-04-20T07:52:15;3.73;;;2.70;;
71867;SDS011;59738;48.324;14.230;2023-04-20T07:54:43;2.83;;;2.38;;
71867;SDS011;59738;48.324;14.230;2023-04-20T07:57:10;3.53;;;2.25;;
71867;SDS011;59738;48.324;14.230;2023-04-20T07:59:37;2.63;;;2.22;;
71867;SDS011;59738;48.324;14.230;2023-04-20T08:02:05;4.20;;;2.60;;
71867;SDS011;59738;48.324;14.230;2023-04-20T08:04:32;3.27;;;2.77;;
71867;SDS011;59738;48.324;14.230;2023-04-20T08:06:59;4.43;;;2.38;;
71867;SDS011;59738;48.324;14.230;2023-04-20T08:09:27;2.65;;;2.25;;
71867;SDS011;59738;48.324;14.230;2023-04-20T08:11:55;2.95;;;2.20;;
71867;SDS011;59738;48.324;14.230;2023-04-20T08:14:22;2.75;;;2.25;;
71867;SDS011;59738;48.324;14.230;2023-04-20T08:16:49;3.00;;;2.30;;
71867;SDS011;59738;48.324;14.230;2023-04-20T08:19:16;2.85;;;2.00;;
71867;SDS011;59738;48.324;14.230;2023-04-20T08:21:43;3.45;;;2.72;;
71867;SDS011;59738;48.324;14.230;2023-04-20T08:24:10;2.50;;;2.28;;
71867;SDS011;59738;48.324;14.230;2023-04-20T08:26:39;3.03;;;2.58;;
71867;SDS011;59738;48.324;14.230;2023-04-20T08:29:06;2.50;;;2.30;;
71867;SDS011;59738;48.324;14.230;2023-04-20T08:31:33;2.50;;;2.25;;
71867;SDS011;59738;48.324;14.230;2023-04-20T08:34:00;2.47;;;2.25;;
71867;SDS011;59738;48.324;14.230;2023-04-20T08:36:27;3.17;;;2.38;;
71867;SDS011;59738;48.324;14.230;2023-04-20T08:38:56;3.75;;;2.47;;
71867;SDS011;59738;48.324;14.230;2023-04-20T08:41:23;3.37;;;2.77;;
71867;SDS011;59738;48.324;14.230;2023-04-20T08:43:52;2.65;;;2.42;;
71867;SDS011;59738;48.324;14.230;2023-04-20T08:46:19;4.10;;;2.58;;
71867;SDS011;59738;48.324;14.230;2023-04-20T08:48:48;3.83;;;2.80;;
71867;SDS011;59738;48.324;14.230;2023-04-20T08:51:16;4.35;;;2.80;;
71867;SDS011;59738;48.324;14.230;2023-04-20T08:53:43;6.63;;;2.80;;
71867;SDS011;59738;48.324;14.230;2023-04-20T08:56:11;4.50;;;3.00;;
71867;SDS011;59738;48.324;14.230;2023-04-20T08:58:38;4.85;;;3.20;;
71867;SDS011;59738;48.324;14.230;2023-04-20T09:01:08;5.90;;;2.85;;
71867;SDS011;59738;48.324;14.230;2023-04-20T09:03:38;4.72;;;3.58;;
71867;SDS011;59738;48.324;14.230;2023-04-20T09:06:05;4.40;;;3.10;;
71867;SDS011;59738;48.324;14.230;2023-04-20T09:08:39;3.17;;;2.75;;
71867;SDS011;59738;48.324;14.230;2023-04-20T09:11:16;3.75;;;2.78;;
71867;SDS011;59738;48.324;14.230;2023-04-20T09:13:55;5.13;;;3.28;;
71867;SDS011;59738;48.324;14.230;2023-04-20T09:16:24;3.92;;;2.60;;
71867;SDS011;59738;48.324;14.230;2023-04-20T09:18:51;4.17;;;3.10;;
71867;SDS011;59738;48.324;14.230;2023-04-20T09:21:19;4.35;;;3.28;;
71867;SDS011;59738;48.324;14.230;2023-04-20T09:23:54;7.28;;;3.25;;
71867;SDS011;59738;48.324;14.230;2023-04-20T09:26:21;7.65;;;4.18;;
71867;SDS011;59738;48.324;14.230;2023-04-20T09:28:48;4.88;;;3.88;;
71867;SDS011;59738;48.324;14.230;2023-04-20T09:31:16;8.10;;;4.40;;
71867;SDS011;59738;48.324;14.230;2023-04-20T09:33:54;5.22;;;3.85;;
71867;SDS011;59738;48.324;14.230;2023-04-20T09:36:21;7.38;;;4.75;;
71867;SDS011;59738;48.324;14.230;2023-04-20T09:38:48;7.53;;;4.78;;
71867;SDS011;59738;48.324;14.230;2023-04-20T09:41:28;9.75;;;5.80;;
71867;SDS011;59738;48.324;14.230;2023-04-20T09:43:57;6.97;;;4.80;;
71867;SDS011;59738;48.324;14.230;2023-04-20T09:46:24;7.03;;;4.18;;
71867;SDS011;59738;48.324;14.230;2023-04-20T09:48:55;7.43;;;4.35;;
71867;SDS011;59738;48.324;14.230;2023-04-20T09:51:24;6.13;;;4.30;;
71867;SDS011;59738;48.324;14.230;2023-04-20T09:53:52;10.93;;;4.80;;
71867;SDS011;59738;48.324;14.230;2023-04-20T09:56:20;7.17;;;4.20;;
71867;SDS011;59738;48.324;14.230;2023-04-20T09:58:47;5.68;;;3.83;;
71867;SDS011;59738;48.324;14.230;2023-04-20T10:01:16;5.43;;;3.80;;
71867;SDS011;59738;48.324;14.230;2023-04-20T10:03:44;8.65;;;4.82;;
71867;SDS011;59738;48.324;14.230;2023-04-20T10:06:19;7.38;;;4.05;;
71867;SDS011;59738;48.324;14.230;2023-04-20T10:08:47;6.53;;;3.83;;
71867;SDS011;59738;48.324;14.230;2023-04-20T10:11:24;5.55;;;3.92;;
71867;SDS011;59738;48.324;14.230;2023-04-20T10:13:52;5.85;;;3.83;;
71867;SDS011;59738;48.324;14.230;2023-04-20T10:16:19;7.65;;;4.70;;
71867;SDS011;59738;48.324;14.230;2023-04-20T10:18:56;7.68;;;4.68;;
71867;SDS011;59738;48.324;14.230;2023-04-20T10:21:25;8.93;;;4.97;;
71867;SDS011;59738;48.324;14.230;2023-04-20T10:23:52;9.05;;;5.20;;
71867;SDS011;59738;48.324;14.230;2023-04-20T10:26:20;9.20;;;4.45;;
71867;SDS011;59738;48.324;14.230;2023-04-20T10:28:47;8.23;;;4.20;;
71867;SDS011;59738;48.324;14.230;2023-04-20T10:31:14;8.82;;;4.88;;
71867;SDS011;59738;48.324;14.230;2023-04-20T10:33:48;12.60;;;5.47;;
71867;SDS011;59738;48.324;14.230;2023-04-20T10:36:21;9.18;;;4.47;;
71867;SDS011;59738;48.324;14.230;2023-04-20T10:38:50;9.13;;;4.53;;
71867;SDS011;59738;48.324;14.230;2023-04-20T10:41:17;9.60;;;4.90;;
71867;SDS011;59738;48.324;14.230;2023-04-20T10:43:44;9.63;;;5.47;;
71867;SDS011;59738;48.324;14.230;2023-04-20T10:46:12;10.67;;;6.03;;
71867;SDS011;59738;48.324;14.230;2023-04-20T10:48:47;11.43;;;5.45;;
71867;SDS011;59738;48.324;14.230;2023-04-20T10:51:14;10.55;;;6.13;;
71867;SDS011;59738;48.324;14.230;2023-04-20T10:53:42;10.02;;;5.25;;
71867;SDS011;59738;48.324;14.230;2023-04-20T10:56:11;6.68;;;4.78;;
71867;SDS011;59738;48.324;14.230;2023-04-20T10:58:38;8.73;;;5.20;;
71867;SDS011;59738;48.324;14.230;2023-04-20T11:01:06;11.88;;;6.28;;
71867;SDS011;59738;48.324;14.230;2023-04-20T11:03:33;10.68;;;6.90;;
71867;SDS011;59738;48.324;14.230;2023-04-20T11:06:00;12.88;;;6.13;;
71867;SDS011;59738;48.324;14.230;2023-04-20T11:08:34;8.43;;;5.32;;
71867;SDS011;59738;48.324;14.230;2023-04-20T11:11:01;5.43;;;3.93;;
71867;SDS011;59738;48.324;14.230;2023-04-20T11:13:30;8.40;;;5.50;;
71867;SDS011;59738;48.324;14.230;2023-04-20T11:15:58;7.32;;;4.30;;
71867;SDS011;59738;48.324;14.230;2023-04-20T11:18:25;8.35;;;5.10;;
71867;SDS011;59738;48.324;14.230;2023-04-20T11:20:52;9.48;;;5.65;;
71867;SDS011;59738;48.324;14.230;2023-04-20T11:23:19;7.13;;;4.73;;
71867;SDS011;59738;48.324;14.230;2023-04-20T11:25:47;7.05;;;4.40;;
71867;SDS011;59738;48.324;14.230;2023-04-20T11:28:14;9.10;;;5.38;;
71867;SDS011;59738;48.324;14.230;2023-04-20T11:30:43;9.70;;;4.90;;
71867;SDS011;59738;48.324;14.230;2023-04-20T11:33:10;13.35;;;6.32;;
71867;SDS011;59738;48.324;14.230;2023-04-20T11:35:38;8.57;;;5.37;;
71867;SDS011;59738;48.324;14.230;2023-04-20T11:38:06;7.90;;;3.92;;
71867;SDS011;59738;48.324;14.230;2023-04-20T11:40:33;7.50;;;4.40;;
71867;SDS011;59738;48.324;14.230;2023-04-20T11:43:01;10.23;;;4.78;;
71867;SDS011;59738;48.324;14.230;2023-04-20T11:45:30;8.85;;;4.20;;
71867;SDS011;59738;48.324;14.230;2023-04-20T11:47:59;6.47;;;3.97;;
71867;SDS011;59738;48.324;14.230;2023-04-20T11:50:26;11.02;;;5.05;;
71867;SDS011;59738;48.324;14.230;2023-04-20T11:52:53;8.13;;;5.35;;
71867;SDS011;59738;48.324;14.230;2023-04-20T11:55:20;8.98;;;5.38;;
71867;SDS011;59738;48.324;14.230;2023-04-20T11:57:47;16.13;;;5.85;;
71867;SDS011;59738;48.324;14.230;2023-04-20T12:00:15;9.07;;;4.37;;
71867;SDS011;59738;48.324;14.230;2023-04-20T12:02:42;12.82;;;5.80;;
71867;SDS011;59738;48.324;14.230;2023-04-20T12:05:11;8.35;;;4.93;;
71867;SDS011;59738;48.324;14.230;2023-04-20T12:07:38;10.60;;;4.97;;
71867;SDS011;59738;48.324;14.230;2023-04-20T12:10:06;8.60;;;4.18;;
71867;SDS011;59738;48.324;14.230;2023-04-20T12:12:33;8.83;;;5.27;;
71867;SDS011;59738;48.324;14.230;2023-04-20T12:15:01;7.30;;;4.15;;
71867;SDS011;59738;48.324;14.230;2023-04-20T12:17:28;10.45;;;4.43;;
71867;SDS011;59738;48.324;14.230;2023-04-20T12:19:55;8.68;;;4.82;;
71867;SDS011;59738;48.324;14.230;2023-04-20T12:22:24;8.30;;;5.10;;
71867;SDS011;59738;48.324;14.230;2023-04-20T12:24:52;9.00;;;5.20;;
71867;SDS011;59738;48.324;14.230;2023-04-20T12:27:19;7.45;;;4.10;;
71867;SDS011;59738;48.324;14.230;2023-04-20T12:29:46;6.10;;;4.30;;
71867;SDS011;59738;48.324;14.230;2023-04-20T12:32:13;5.97;;;3.75;;
71867;SDS011;59738;48.324;14.230;2023-04-20T12:34:40;6.57;;;4.05;;
71867;SDS011;59738;48.324;14.230;2023-04-20T12:37:07;8.37;;;4.30;;
71867;SDS011;59738;48.324;14.230;2023-04-20T12:39:36;4.65;;;3.47;;
71867;SDS011;59738;48.324;14.230;2023-04-20T12:42:03;6.43;;;4.03;;
71867;SDS011;59738;48.324;14.230;2023-04-20T12:44:30;8.65;;;4.18;;
71867;SDS011;59738;48.324;14.230;2023-04-20T12:46:57;7.68;;;4.10;;
71867;SDS011;59738;48.324;14.230;2023-04-20T12:49:24;6.83;;;4.10;;
71867;SDS011;59738;48.324;14.230;2023-04-20T12:51:51;7.70;;;4.22;;
71867;SDS011;59738;48.324;14.230;2023-04-20T12:54:18;5.88;;;4.07;;
71867;SDS011;59738;48.324;14.230;2023-04-20T12:56:47;6.80;;;4.13;;
71867;SDS011;59738;48.324;14.230;2023-04-20T12:59:14;8.57;;;4.50;;
71867;SDS011;59738;48.324;14.230;2023-04-20T13:01:41;6.87;;;3.63;;
71867;SDS011;59738;48.324;14.230;2023-04-20T13:04:08;6.55;;;3.97;;
71867;SDS011;59738;48.324;14.230;2023-04-20T13:06:35;6.85;;;4.32;;
71867;SDS011;59738;48.324;14.230;2023-04-20T13:09:02;5.50;;;3.67;;
71867;SDS011;59738;48.324;14.230;2023-04-20T13:11:30;3.53;;;2.53;;
71867;SDS011;59738;48.324;14.230;2023-04-20T13:13:59;6.43;;;3.43;;
71867;SDS011;59738;48.324;14.230;2023-04-20T13:16:26;6.35;;;3.88;;
71867;SDS011;59738;48.324;14.230;2023-04-20T13:18:53;5.03;;;3.55;;
71867;SDS011;59738;48.324;14.230;2023-04-20T13:21:21;6.68;;;3.83;;
71867;SDS011;59738;48.324;14.230;2023-04-20T13:23:48;5.60;;;3.95;;
71867;SDS011;59738;48.324;14.230;2023-04-20T13:26:15;7.90;;;3.80;;
71867;SDS011;59738;48.324;14.230;2023-04-20T13:28:42;8.77;;;4.25;;
71867;SDS011;59738;48.324;14.230;2023-04-20T13:31:11;6.40;;;4.05;;
71867;SDS011;59738;48.324;14.230;2023-04-20T13:33:38;5.25;;;3.85;;
71867;SDS011;59738;48.324;14.230;2023-04-20T13:36:05;7.95;;;4.47;;
71867;SDS011;59738;48.324;14.230;2023-04-20T13:38:34;8.43;;;3.77;;
71867;SDS011;59738;48.324;14.230;2023-04-20T13:41:01;5.53;;;3.70;;
71867;SDS011;59738;48.324;14.230;2023-04-20T13:43:28;6.28;;;3.20;;
71867;SDS011;59738;48.324;14.230;2023-04-20T13:45:55;4.15;;;3.00;;
71867;SDS011;59738;48.324;14.230;2023-04-20T13:48:24;6.55;;;3.15;;
71867;SDS011;59738;48.324;14.230;2023-04-20T13:50:51;3.83;;;2.80;;
71867;SDS011;59738;48.324;14.230;2023-04-20T13:53:18;6.03;;;2.97;;
71867;SDS011;59738;48.324;14.230;2023-04-20T13:55:46;5.72;;;2.97;;
71867;SDS011;59738;48.324;14.230;2023-04-20T13:58:13;6.63;;;4.10;;
71867;SDS011;59738;48.324;14.230;2023-04-20T14:00:40;4.05;;;3.33;;
71867;SDS011;59738;48.324;14.230;2023-04-20T14:03:07;4.60;;;2.77;;
71867;SDS011;59738;48.324;14.230;2023-04-20T14:05:36;3.78;;;2.80;;
71867;SDS011;59738;48.324;14.230;2023-04-20T14:08:04;4.82;;;2.92;;
71867;SDS011;59738;48.324;14.230;2023-04-20T14:10:32;5.00;;;2.90;;
71867;SDS011;59738;48.324;14.230;2023-04-20T14:12:59;3.67;;;2.85;;
71867;SDS011;59738;48.324;14.230;2023-04-20T14:15:26;5.43;;;3.23;;
71867;SDS011;59738;48.324;14.230;2023-04-20T14:17:53;3.58;;;3.05;;
71867;SDS011;59738;48.324;14.230;2023-04-20T14:20:20;5.65;;;3.25;;
71867;SDS011;59738;48.324;14.230;2023-04-20T14:22:49;5.32;;;3.20;;
71867;SDS011;59738;48.324;14.230;2023-04-20T14:25:16;5.47;;;3.50;;
71867;SDS011;59738;48.324;14.230;2023-04-20T14:27:43;4.33;;;2.40;;
71867;SDS011;59738;48.324;14.230;2023-04-20T14:30:11;4.88;;;2.80;;
71867;SDS011;59738;48.324;14.230;2023-04-20T14:32:39;5.10;;;2.75;;
71867;SDS011;59738;48.324;14.230;2023-04-20T14:35:06;3.95;;;2.80;;
71867;SDS011;59738;48.324;14.230;2023-04-20T14:37:34;6.78;;;2.80;;